sensor_id;sensor_type;location;lat;lon;timestamp;P1;durP1;ratioP1;P2;durP2;ratioP2
59978;SDS011;45839;44.882;20.650;2023-01-15T00:00:48;55.25;;;38.70;;
59978;SDS011;45839;44.882;20.650;2023-01-15T00:03:14;54.28;;;37.88;;
59978;SDS011;45839;44.882;20.650;2023-01-15T00:05:40;53.88;;;38.40;;
59978;SDS011;45839;44.882;20.650;2023-01-15T00:08:06;54.15;;;38.55;;
59978;SDS011;45839;44.882;20.650;2023-01-15T00:10:32;55.50;;;37.72;;
59978;SDS011;45839;44.882;20.650;2023-01-15T00:12:58;56.50;;;38.72;;
59978;SDS011;45839;44.882;20.650;2023-01-15T00:15:24;50.97;;;34.92;;
59978;SDS011;45839;44.882;20.650;2023-01-15T00:17:50;50.97;;;34.63;;
59978;SDS011;45839;44.882;20.650;2023-01-15T00:20:16;59.33;;;39.85;;
59978;SDS011;45839;44.882;20.650;2023-01-15T00:22:42;54.35;;;35.95;;
59978;SDS011;45839;44.882;20.650;2023-01-15T00:25:08;54.90;;;36.92;;
59978;SDS011;45839;44.882;20.650;2023-01-15T00:27:53;51.00;;;36.83;;
59978;SDS011;45839;44.882;20.650;2023-01-15T00:30:20;55.30;;;37.65;;
59978;SDS011;45839;44.882;20.650;2023-01-15T00:32:47;54.78;;;37.75;;
59978;SDS011;45839;44.882;20.650;2023-01-15T00:35:14;57.38;;;39.83;;
59978;SDS011;45839;44.882;20.650;2023-01-15T00:37:40;56.85;;;39.50;;
59978;SDS011;45839;44.882;20.650;2023-01-15T00:40:07;55.75;;;38.63;;
59978;SDS011;45839;44.882;20.650;2023-01-15T00:42:33;52.92;;;36.58;;
59978;SDS011;45839;44.882;20.650;2023-01-15T00:44:59;50.78;;;35.80;;
59978;SDS011;45839;44.882;20.650;2023-01-15T00:47:33;51.60;;;35.58;;
59978;SDS011;45839;44.882;20.650;2023-01-15T00:49:59;55.92;;;40.33;;
59978;SDS011;45839;44.882;20.650;2023-01-15T00:52:25;59.17;;;40.65;;
59978;SDS011;45839;44.882;20.650;2023-01-15T00:54:51;57.10;;;39.60;;
59978;SDS011;45839;44.882;20.650;2023-01-15T00:57:18;47.05;;;34.88;;
59978;SDS011;45839;44.882;20.650;2023-01-15T00:59:44;46.50;;;32.90;;
59978;SDS011;45839;44.882;20.650;2023-01-15T01:02:10;46.47;;;32.40;;
59978;SDS011;45839;44.882;20.650;2023-01-15T01:04:36;47.33;;;32.08;;
59978;SDS011;45839;44.882;20.650;2023-01-15T01:07:03;45.95;;;31.15;;
59978;SDS011;45839;44.882;20.650;2023-01-15T01:09:29;43.33;;;30.02;;
59978;SDS011;45839;44.882;20.650;2023-01-15T01:11:55;43.42;;;30.25;;
59978;SDS011;45839;44.882;20.650;2023-01-15T01:14:21;44.10;;;29.42;;
59978;SDS011;45839;44.882;20.650;2023-01-15T01:16:47;42.03;;;28.83;;
59978;SDS011;45839;44.882;20.650;2023-01-15T01:19:18;42.30;;;28.98;;
59978;SDS011;45839;44.882;20.650;2023-01-15T01:21:45;43.90;;;28.90;;
59978;SDS011;45839;44.882;20.650;2023-01-15T01:24:13;40.25;;;28.58;;
59978;SDS011;45839;44.882;20.650;2023-01-15T01:26:39;42.97;;;29.52;;
59978;SDS011;45839;44.882;20.650;2023-01-15T01:29:09;43.47;;;29.50;;
59978;SDS011;45839;44.882;20.650;2023-01-15T01:31:36;43.97;;;29.83;;
59978;SDS011;45839;44.882;20.650;2023-01-15T01:34:02;41.70;;;29.70;;
59978;SDS011;45839;44.882;20.650;2023-01-15T01:36:29;43.60;;;30.20;;
59978;SDS011;45839;44.882;20.650;2023-01-15T01:38:55;44.30;;;30.08;;
59978;SDS011;45839;44.882;20.650;2023-01-15T01:41:22;44.10;;;30.90;;
59978;SDS011;45839;44.882;20.650;2023-01-15T01:43:52;46.63;;;32.15;;
59978;SDS011;45839;44.882;20.650;2023-01-15T01:46:19;45.45;;;31.10;;
59978;SDS011;45839;44.882;20.650;2023-01-15T01:48:45;45.35;;;31.33;;
59978;SDS011;45839;44.882;20.650;2023-01-15T01:51:12;45.00;;;32.20;;
59978;SDS011;45839;44.882;20.650;2023-01-15T01:53:38;46.90;;;32.25;;
59978;SDS011;45839;44.882;20.650;2023-01-15T01:56:06;47.55;;;33.03;;
59978;SDS011;45839;44.882;20.650;2023-01-15T01:58:32;45.00;;;32.13;;
59978;SDS011;45839;44.882;20.650;2023-01-15T02:00:59;46.08;;;32.83;;
59978;SDS011;45839;44.882;20.650;2023-01-15T02:03:26;45.05;;;31.48;;
59978;SDS011;45839;44.882;20.650;2023-01-15T02:05:57;45.67;;;31.27;;
59978;SDS011;45839;44.882;20.650;2023-01-15T02:08:25;43.42;;;30.80;;
59978;SDS011;45839;44.882;20.650;2023-01-15T02:10:52;40.60;;;30.00;;
59978;SDS011;45839;44.882;20.650;2023-01-15T02:13:26;44.35;;;31.05;;
59978;SDS011;45839;44.882;20.650;2023-01-15T02:16:17;42.22;;;30.52;;
59978;SDS011;45839;44.882;20.650;2023-01-15T02:21:20;42.95;;;31.20;;
59978;SDS011;45839;44.882;20.650;2023-01-15T02:29:09;43.60;;;31.15;;
59978;SDS011;45839;44.882;20.650;2023-01-15T02:31:39;41.65;;;31.73;;
59978;SDS011;45839;44.882;20.650;2023-01-15T02:34:11;41.78;;;31.35;;
59978;SDS011;45839;44.882;20.650;2023-01-15T02:36:40;42.17;;;31.90;;
59978;SDS011;45839;44.882;20.650;2023-01-15T02:39:07;43.38;;;32.10;;
59978;SDS011;45839;44.882;20.650;2023-01-15T02:41:37;44.80;;;32.80;;
59978;SDS011;45839;44.882;20.650;2023-01-15T02:44:04;44.53;;;32.47;;
59978;SDS011;45839;44.882;20.650;2023-01-15T02:46:33;47.80;;;33.92;;
59978;SDS011;45839;44.882;20.650;2023-01-15T02:49:00;47.40;;;33.15;;
59978;SDS011;45839;44.882;20.650;2023-01-15T02:51:30;49.90;;;34.42;;
59978;SDS011;45839;44.882;20.650;2023-01-15T02:53:58;47.80;;;33.25;;
59978;SDS011;45839;44.882;20.650;2023-01-15T02:56:27;48.47;;;34.08;;
59978;SDS011;45839;44.882;20.650;2023-01-15T02:58:55;46.95;;;33.10;;
59978;SDS011;45839;44.882;20.650;2023-01-15T03:01:28;47.92;;;33.95;;
59978;SDS011;45839;44.882;20.650;2023-01-15T03:04:03;46.28;;;31.95;;
59978;SDS011;45839;44.882;20.650;2023-01-15T03:09:02;48.72;;;33.90;;
59978;SDS011;45839;44.882;20.650;2023-01-15T03:11:29;45.42;;;33.17;;
59978;SDS011;45839;44.882;20.650;2023-01-15T03:14:06;44.88;;;32.10;;
59978;SDS011;45839;44.882;20.650;2023-01-15T03:16:37;43.00;;;32.05;;
59978;SDS011;45839;44.882;20.650;2023-01-15T03:19:10;44.10;;;32.22;;
59978;SDS011;45839;44.882;20.650;2023-01-15T03:24:11;45.40;;;32.97;;
59978;SDS011;45839;44.882;20.650;2023-01-15T03:26:37;42.38;;;31.05;;
59978;SDS011;45839;44.882;20.650;2023-01-15T03:29:03;43.53;;;31.10;;
59978;SDS011;45839;44.882;20.650;2023-01-15T03:31:31;40.92;;;31.20;;
59978;SDS011;45839;44.882;20.650;2023-01-15T03:33:58;39.75;;;30.33;;
59978;SDS011;45839;44.882;20.650;2023-01-15T03:36:24;41.25;;;30.95;;
59978;SDS011;45839;44.882;20.650;2023-01-15T03:38:50;47.03;;;31.20;;
59978;SDS011;45839;44.882;20.650;2023-01-15T03:51:22;38.50;;;29.65;;
59978;SDS011;45839;44.882;20.650;2023-01-15T03:53:56;44.28;;;31.50;;
59978;SDS011;45839;44.882;20.650;2023-01-15T04:01:31;44.67;;;30.60;;
59978;SDS011;45839;44.882;20.650;2023-01-15T04:03:59;42.10;;;32.63;;
59978;SDS011;45839;44.882;20.650;2023-01-15T04:06:29;43.33;;;33.97;;
59978;SDS011;45839;44.882;20.650;2023-01-15T04:08:56;39.60;;;34.30;;
59978;SDS011;45839;44.882;20.650;2023-01-15T04:11:23;41.97;;;36.17;;
59978;SDS011;45839;44.882;20.650;2023-01-15T04:13:50;40.78;;;35.22;;
59978;SDS011;45839;44.882;20.650;2023-01-15T04:16:27;49.05;;;36.00;;
59978;SDS011;45839;44.882;20.650;2023-01-15T04:18:53;42.75;;;35.67;;
59978;SDS011;45839;44.882;20.650;2023-01-15T04:21:20;41.08;;;35.67;;
59978;SDS011;45839;44.882;20.650;2023-01-15T04:23:46;42.22;;;35.20;;
59978;SDS011;45839;44.882;20.650;2023-01-15T04:26:12;43.28;;;34.88;;
59978;SDS011;45839;44.882;20.650;2023-01-15T04:28:38;39.97;;;32.78;;
59978;SDS011;45839;44.882;20.650;2023-01-15T04:31:04;40.08;;;33.15;;
59978;SDS011;45839;44.882;20.650;2023-01-15T04:33:31;42.65;;;34.03;;
59978;SDS011;45839;44.882;20.650;2023-01-15T04:36:00;40.55;;;33.05;;
59978;SDS011;45839;44.882;20.650;2023-01-15T04:38:26;39.70;;;32.88;;
59978;SDS011;45839;44.882;20.650;2023-01-15T04:40:53;40.30;;;32.33;;
59978;SDS011;45839;44.882;20.650;2023-01-15T04:43:38;39.53;;;31.85;;
59978;SDS011;45839;44.882;20.650;2023-01-15T04:46:23;39.17;;;31.58;;
59978;SDS011;45839;44.882;20.650;2023-01-15T04:48:49;38.17;;;30.98;;
59978;SDS011;45839;44.882;20.650;2023-01-15T04:51:15;36.85;;;29.48;;
59978;SDS011;45839;44.882;20.650;2023-01-15T04:53:42;37.63;;;29.95;;
59978;SDS011;45839;44.882;20.650;2023-01-15T04:56:08;35.97;;;29.38;;
59978;SDS011;45839;44.882;20.650;2023-01-15T04:58:34;36.17;;;28.98;;
59978;SDS011;45839;44.882;20.650;2023-01-15T05:01:00;36.03;;;28.63;;
59978;SDS011;45839;44.882;20.650;2023-01-15T05:03:27;36.10;;;28.08;;
59978;SDS011;45839;44.882;20.650;2023-01-15T05:05:53;35.25;;;28.33;;
59978;SDS011;45839;44.882;20.650;2023-01-15T05:08:19;35.78;;;28.17;;
59978;SDS011;45839;44.882;20.650;2023-01-15T05:10:45;35.55;;;27.50;;
59978;SDS011;45839;44.882;20.650;2023-01-15T05:13:11;34.05;;;27.27;;
59978;SDS011;45839;44.882;20.650;2023-01-15T05:15:37;36.40;;;28.50;;
59978;SDS011;45839;44.882;20.650;2023-01-15T05:18:05;37.90;;;29.45;;
59978;SDS011;45839;44.882;20.650;2023-01-15T05:20:35;36.72;;;27.83;;
59978;SDS011;45839;44.882;20.650;2023-01-15T05:23:01;38.65;;;27.80;;
59978;SDS011;45839;44.882;20.650;2023-01-15T05:25:27;37.10;;;28.13;;
59978;SDS011;45839;44.882;20.650;2023-01-15T05:27:53;36.22;;;26.75;;
59978;SDS011;45839;44.882;20.650;2023-01-15T05:30:19;34.67;;;26.75;;
59978;SDS011;45839;44.882;20.650;2023-01-15T05:32:45;35.03;;;26.67;;
59978;SDS011;45839;44.882;20.650;2023-01-15T05:35:11;34.88;;;25.40;;
59978;SDS011;45839;44.882;20.650;2023-01-15T05:37:37;37.35;;;27.75;;
59978;SDS011;45839;44.882;20.650;2023-01-15T05:40:03;38.83;;;29.58;;
59978;SDS011;45839;44.882;20.650;2023-01-15T05:42:29;45.50;;;29.00;;
59978;SDS011;45839;44.882;20.650;2023-01-15T05:44:55;35.92;;;27.98;;
59978;SDS011;45839;44.882;20.650;2023-01-15T05:47:21;35.95;;;28.27;;
59978;SDS011;45839;44.882;20.650;2023-01-15T05:49:47;37.03;;;28.88;;
59978;SDS011;45839;44.882;20.650;2023-01-15T05:52:14;32.80;;;26.38;;
59978;SDS011;45839;44.882;20.650;2023-01-15T05:54:40;33.15;;;26.90;;
59978;SDS011;45839;44.882;20.650;2023-01-15T05:57:08;35.05;;;27.25;;
59978;SDS011;45839;44.882;20.650;2023-01-15T05:59:35;34.15;;;26.80;;
59978;SDS011;45839;44.882;20.650;2023-01-15T06:02:01;35.00;;;27.58;;
59978;SDS011;45839;44.882;20.650;2023-01-15T06:04:27;35.15;;;26.60;;
59978;SDS011;45839;44.882;20.650;2023-01-15T06:06:54;36.03;;;26.98;;
59978;SDS011;45839;44.882;20.650;2023-01-15T06:09:20;38.08;;;27.75;;
59978;SDS011;45839;44.882;20.650;2023-01-15T06:11:47;33.70;;;25.95;;
59978;SDS011;45839;44.882;20.650;2023-01-15T06:14:13;33.55;;;26.42;;
59978;SDS011;45839;44.882;20.650;2023-01-15T06:16:40;37.25;;;27.63;;
59978;SDS011;45839;44.882;20.650;2023-01-15T06:19:06;35.20;;;27.13;;
59978;SDS011;45839;44.882;20.650;2023-01-15T06:21:33;33.60;;;26.05;;
59978;SDS011;45839;44.882;20.650;2023-01-15T06:23:59;36.28;;;26.50;;
59978;SDS011;45839;44.882;20.650;2023-01-15T06:26:26;36.20;;;25.90;;
59978;SDS011;45839;44.882;20.650;2023-01-15T06:28:52;41.72;;;27.48;;
59978;SDS011;45839;44.882;20.650;2023-01-15T06:31:19;37.63;;;27.55;;
59978;SDS011;45839;44.882;20.650;2023-01-15T06:33:46;37.95;;;26.80;;
59978;SDS011;45839;44.882;20.650;2023-01-15T06:36:13;37.80;;;27.00;;
59978;SDS011;45839;44.882;20.650;2023-01-15T06:38:40;37.95;;;27.02;;
59978;SDS011;45839;44.882;20.650;2023-01-15T06:41:07;37.47;;;26.65;;
59978;SDS011;45839;44.882;20.650;2023-01-15T06:43:53;37.10;;;26.33;;
59978;SDS011;45839;44.882;20.650;2023-01-15T06:46:44;35.88;;;24.90;;
59978;SDS011;45839;44.882;20.650;2023-01-15T06:49:29;39.35;;;24.48;;
59978;SDS011;45839;44.882;20.650;2023-01-15T06:51:56;34.38;;;24.10;;
59978;SDS011;45839;44.882;20.650;2023-01-15T06:54:22;33.78;;;22.88;;
59978;SDS011;45839;44.882;20.650;2023-01-15T06:56:48;33.65;;;24.08;;
59978;SDS011;45839;44.882;20.650;2023-01-15T06:59:14;32.97;;;22.77;;
59978;SDS011;45839;44.882;20.650;2023-01-15T07:01:41;39.85;;;24.83;;
59978;SDS011;45839;44.882;20.650;2023-01-15T07:04:07;34.72;;;22.90;;
59978;SDS011;45839;44.882;20.650;2023-01-15T07:06:33;36.03;;;23.30;;
59978;SDS011;45839;44.882;20.650;2023-01-15T07:08:59;34.88;;;22.88;;
59978;SDS011;45839;44.882;20.650;2023-01-15T07:11:25;37.50;;;23.45;;
59978;SDS011;45839;44.882;20.650;2023-01-15T07:13:51;40.28;;;25.38;;
59978;SDS011;45839;44.882;20.650;2023-01-15T07:16:30;44.95;;;26.00;;
59978;SDS011;45839;44.882;20.650;2023-01-15T07:18:56;39.90;;;24.48;;
59978;SDS011;45839;44.882;20.650;2023-01-15T07:21:22;40.00;;;24.65;;
59978;SDS011;45839;44.882;20.650;2023-01-15T07:23:48;42.88;;;25.38;;
59978;SDS011;45839;44.882;20.650;2023-01-15T07:26:14;45.25;;;27.17;;
59978;SDS011;45839;44.882;20.650;2023-01-15T07:28:40;46.05;;;28.25;;
59978;SDS011;45839;44.882;20.650;2023-01-15T07:31:06;46.47;;;28.98;;
59978;SDS011;45839;44.882;20.650;2023-01-15T07:33:32;47.05;;;27.98;;
59978;SDS011;45839;44.882;20.650;2023-01-15T07:36:02;46.20;;;28.70;;
59978;SDS011;45839;44.882;20.650;2023-01-15T07:38:28;43.35;;;27.60;;
59978;SDS011;45839;44.882;20.650;2023-01-15T07:40:55;44.17;;;28.30;;
59978;SDS011;45839;44.882;20.650;2023-01-15T07:43:39;42.25;;;27.20;;
59978;SDS011;45839;44.882;20.650;2023-01-15T07:46:24;42.58;;;27.23;;
59978;SDS011;45839;44.882;20.650;2023-01-15T07:49:09;40.45;;;26.45;;
59978;SDS011;45839;44.882;20.650;2023-01-15T07:51:54;40.60;;;26.95;;
59978;SDS011;45839;44.882;20.650;2023-01-15T07:54:20;43.10;;;27.17;;
59978;SDS011;45839;44.882;20.650;2023-01-15T07:56:46;38.80;;;25.90;;
59978;SDS011;45839;44.882;20.650;2023-01-15T07:59:12;37.72;;;26.63;;
59978;SDS011;45839;44.882;20.650;2023-01-15T08:01:38;42.60;;;28.05;;
59978;SDS011;45839;44.882;20.650;2023-01-15T08:04:04;39.53;;;26.90;;
59978;SDS011;45839;44.882;20.650;2023-01-15T08:06:30;42.60;;;26.48;;
59978;SDS011;45839;44.882;20.650;2023-01-15T08:08:57;40.95;;;26.10;;
59978;SDS011;45839;44.882;20.650;2023-01-15T08:11:23;38.92;;;26.38;;
59978;SDS011;45839;44.882;20.650;2023-01-15T08:14:08;39.90;;;26.55;;
59978;SDS011;45839;44.882;20.650;2023-01-15T08:17:12;42.03;;;28.17;;
59978;SDS011;45839;44.882;20.650;2023-01-15T08:19:39;39.92;;;26.13;;
59978;SDS011;45839;44.882;20.650;2023-01-15T08:22:05;42.33;;;27.63;;
59978;SDS011;45839;44.882;20.650;2023-01-15T08:24:31;39.15;;;25.85;;
59978;SDS011;45839;44.882;20.650;2023-01-15T08:26:57;41.80;;;27.38;;
59978;SDS011;45839;44.882;20.650;2023-01-15T08:29:23;39.05;;;25.45;;
59978;SDS011;45839;44.882;20.650;2023-01-15T08:31:49;36.88;;;25.70;;
59978;SDS011;45839;44.882;20.650;2023-01-15T08:34:15;38.25;;;25.65;;
59978;SDS011;45839;44.882;20.650;2023-01-15T08:36:41;34.08;;;24.85;;
59978;SDS011;45839;44.882;20.650;2023-01-15T08:39:07;35.05;;;24.52;;
59978;SDS011;45839;44.882;20.650;2023-01-15T08:41:33;35.92;;;25.23;;
59978;SDS011;45839;44.882;20.650;2023-01-15T08:43:59;32.58;;;23.38;;
59978;SDS011;45839;44.882;20.650;2023-01-15T08:46:25;51.55;;;37.20;;
59978;SDS011;45839;44.882;20.650;2023-01-15T08:48:51;47.50;;;34.00;;
59978;SDS011;45839;44.882;20.650;2023-01-15T08:51:17;38.50;;;29.42;;
59978;SDS011;45839;44.882;20.650;2023-01-15T08:53:44;119.80;;;83.47;;
59978;SDS011;45839;44.882;20.650;2023-01-15T08:56:14;116.30;;;85.40;;
59978;SDS011;45839;44.882;20.650;2023-01-15T08:58:41;107.28;;;78.20;;
59978;SDS011;45839;44.882;20.650;2023-01-15T09:01:08;159.68;;;114.07;;
59978;SDS011;45839;44.882;20.650;2023-01-15T09:03:34;258.58;;;208.20;;
59978;SDS011;45839;44.882;20.650;2023-01-15T09:06:01;56.40;;;42.53;;
59978;SDS011;45839;44.882;20.650;2023-01-15T09:08:27;70.18;;;51.20;;
59978;SDS011;45839;44.882;20.650;2023-01-15T09:11:00;35.97;;;25.35;;
59978;SDS011;45839;44.882;20.650;2023-01-15T09:15:53;41.15;;;29.02;;
59978;SDS011;45839;44.882;20.650;2023-01-15T09:18:19;37.35;;;27.08;;
59978;SDS011;45839;44.882;20.650;2023-01-15T09:20:45;28.77;;;20.08;;
59978;SDS011;45839;44.882;20.650;2023-01-15T09:23:11;26.00;;;19.58;;
59978;SDS011;45839;44.882;20.650;2023-01-15T09:25:37;30.40;;;21.08;;
59978;SDS011;45839;44.882;20.650;2023-01-15T09:28:04;28.25;;;20.52;;
59978;SDS011;45839;44.882;20.650;2023-01-15T09:30:30;26.02;;;19.92;;
59978;SDS011;45839;44.882;20.650;2023-01-15T09:32:56;24.52;;;18.60;;
59978;SDS011;45839;44.882;20.650;2023-01-15T09:35:22;25.67;;;19.48;;
59978;SDS011;45839;44.882;20.650;2023-01-15T09:37:51;27.15;;;19.45;;
59978;SDS011;45839;44.882;20.650;2023-01-15T09:43:06;25.98;;;18.23;;
59978;SDS011;45839;44.882;20.650;2023-01-15T09:45:36;26.70;;;18.33;;
59978;SDS011;45839;44.882;20.650;2023-01-15T09:55:53;24.17;;;18.45;;
59978;SDS011;45839;44.882;20.650;2023-01-15T09:58:20;31.67;;;22.63;;
59978;SDS011;45839;44.882;20.650;2023-01-15T10:00:48;33.60;;;22.73;;
59978;SDS011;45839;44.882;20.650;2023-01-15T10:03:32;35.15;;;22.40;;
59978;SDS011;45839;44.882;20.650;2023-01-15T10:06:13;23.20;;;16.98;;
59978;SDS011;45839;44.882;20.650;2023-01-15T10:08:44;22.38;;;16.23;;
59978;SDS011;45839;44.882;20.650;2023-01-15T10:14:14;16.67;;;12.02;;
59978;SDS011;45839;44.882;20.650;2023-01-15T10:16:32;16.02;;;11.77;;
59978;SDS011;45839;44.882;20.650;2023-01-15T10:18:58;17.98;;;13.30;;
59978;SDS011;45839;44.882;20.650;2023-01-15T10:23:58;19.00;;;14.23;;
59978;SDS011;45839;44.882;20.650;2023-01-15T10:28:59;32.42;;;19.17;;
59978;SDS011;45839;44.882;20.650;2023-01-15T10:31:39;27.00;;;20.40;;
59978;SDS011;45839;44.882;20.650;2023-01-15T10:36:35;20.70;;;15.20;;
59978;SDS011;45839;44.882;20.650;2023-01-15T10:46:28;25.20;;;19.98;;
59978;SDS011;45839;44.882;20.650;2023-01-15T10:49:16;58.30;;;39.08;;
59978;SDS011;45839;44.882;20.650;2023-01-15T10:51:47;42.55;;;29.38;;
59978;SDS011;45839;44.882;20.650;2023-01-15T11:02:13;18.77;;;13.10;;
59978;SDS011;45839;44.882;20.650;2023-01-15T11:04:42;19.10;;;12.77;;
59978;SDS011;45839;44.882;20.650;2023-01-15T11:07:08;21.27;;;13.98;;
59978;SDS011;45839;44.882;20.650;2023-01-15T11:09:38;19.17;;;12.63;;
59978;SDS011;45839;44.882;20.650;2023-01-15T11:12:22;19.88;;;13.05;;
59978;SDS011;45839;44.882;20.650;2023-01-15T11:14:48;18.67;;;11.95;;
59978;SDS011;45839;44.882;20.650;2023-01-15T11:20:24;14.82;;;11.30;;
59978;SDS011;45839;44.882;20.650;2023-01-15T11:22:53;13.40;;;10.30;;
59978;SDS011;45839;44.882;20.650;2023-01-15T11:25:29;15.13;;;10.98;;
59978;SDS011;45839;44.882;20.650;2023-01-15T11:27:56;15.32;;;11.38;;
59978;SDS011;45839;44.882;20.650;2023-01-15T11:30:24;15.65;;;11.77;;
59978;SDS011;45839;44.882;20.650;2023-01-15T11:32:54;14.15;;;10.38;;
59978;SDS011;45839;44.882;20.650;2023-01-15T11:35:20;17.00;;;11.65;;
59978;SDS011;45839;44.882;20.650;2023-01-15T11:37:46;15.35;;;11.25;;
59978;SDS011;45839;44.882;20.650;2023-01-15T11:40:15;16.60;;;11.43;;
59978;SDS011;45839;44.882;20.650;2023-01-15T11:42:45;16.83;;;12.07;;
59978;SDS011;45839;44.882;20.650;2023-01-15T11:45:29;16.33;;;11.80;;
59978;SDS011;45839;44.882;20.650;2023-01-15T11:48:15;15.35;;;11.63;;
59978;SDS011;45839;44.882;20.650;2023-01-15T11:51:02;57.15;;;42.75;;
59978;SDS011;45839;44.882;20.650;2023-01-15T11:53:32;47.10;;;36.03;;
59978;SDS011;45839;44.882;20.650;2023-01-15T11:56:00;42.97;;;31.52;;
59978;SDS011;45839;44.882;20.650;2023-01-15T11:58:33;32.83;;;23.02;;
59978;SDS011;45839;44.882;20.650;2023-01-15T12:01:03;13.57;;;10.35;;
59978;SDS011;45839;44.882;20.650;2023-01-15T12:03:29;12.10;;;9.40;;
59978;SDS011;45839;44.882;20.650;2023-01-15T12:06:00;12.50;;;9.50;;
59978;SDS011;45839;44.882;20.650;2023-01-15T12:11:17;13.80;;;10.30;;
59978;SDS011;45839;44.882;20.650;2023-01-15T12:24:01;14.73;;;10.77;;
59978;SDS011;45839;44.882;20.650;2023-01-15T12:26:30;13.95;;;10.48;;
59978;SDS011;45839;44.882;20.650;2023-01-15T12:28:59;15.02;;;11.38;;
59978;SDS011;45839;44.882;20.650;2023-01-15T12:31:37;15.73;;;11.50;;
59978;SDS011;45839;44.882;20.650;2023-01-15T12:34:06;13.40;;;10.65;;
59978;SDS011;45839;44.882;20.650;2023-01-15T12:36:36;12.93;;;9.02;;
59978;SDS011;45839;44.882;20.650;2023-01-15T12:39:04;12.77;;;10.73;;
59978;SDS011;45839;44.882;20.650;2023-01-15T12:41:33;14.75;;;10.05;;
59978;SDS011;45839;44.882;20.650;2023-01-15T12:44:20;14.65;;;11.65;;
59978;SDS011;45839;44.882;20.650;2023-01-15T12:47:23;13.80;;;10.18;;
59978;SDS011;45839;44.882;20.650;2023-01-15T12:49:53;37.22;;;30.30;;
59978;SDS011;45839;44.882;20.650;2023-01-15T12:52:22;14.88;;;12.45;;
59978;SDS011;45839;44.882;20.650;2023-01-15T12:57:30;15.07;;;11.95;;
59978;SDS011;45839;44.882;20.650;2023-01-15T13:00:12;17.65;;;13.30;;
59978;SDS011;45839;44.882;20.650;2023-01-15T13:02:41;13.45;;;10.65;;
59978;SDS011;45839;44.882;20.650;2023-01-15T13:05:16;16.63;;;12.93;;
59978;SDS011;45839;44.882;20.650;2023-01-15T13:12:41;15.50;;;12.27;;
59978;SDS011;45839;44.882;20.650;2023-01-15T13:15:10;20.83;;;16.88;;
59978;SDS011;45839;44.882;20.650;2023-01-15T13:22:53;16.63;;;13.50;;
59978;SDS011;45839;44.882;20.650;2023-01-15T13:28:05;16.65;;;13.50;;
59978;SDS011;45839;44.882;20.650;2023-01-15T13:35:40;38.58;;;32.35;;
59978;SDS011;45839;44.882;20.650;2023-01-15T13:38:16;34.22;;;29.80;;
59978;SDS011;45839;44.882;20.650;2023-01-15T13:40:43;21.08;;;18.00;;
59978;SDS011;45839;44.882;20.650;2023-01-15T13:45:49;22.30;;;19.85;;
59978;SDS011;45839;44.882;20.650;2023-01-15T13:48:17;22.35;;;19.58;;
59978;SDS011;45839;44.882;20.650;2023-01-15T13:50:51;17.13;;;15.32;;
59978;SDS011;45839;44.882;20.650;2023-01-15T13:55:51;15.95;;;14.02;;
59978;SDS011;45839;44.882;20.650;2023-01-15T13:58:19;16.33;;;13.30;;
59978;SDS011;45839;44.882;20.650;2023-01-15T14:00:46;29.48;;;26.10;;
59978;SDS011;45839;44.882;20.650;2023-01-15T14:03:31;28.35;;;25.33;;
59978;SDS011;45839;44.882;20.650;2023-01-15T14:05:58;60.45;;;54.05;;
59978;SDS011;45839;44.882;20.650;2023-01-15T14:08:26;35.75;;;32.05;;
59978;SDS011;45839;44.882;20.650;2023-01-15T14:10:53;21.80;;;19.30;;
59978;SDS011;45839;44.882;20.650;2023-01-15T14:13:34;58.33;;;51.08;;
59978;SDS011;45839;44.882;20.650;2023-01-15T14:16:11;24.58;;;20.60;;
59978;SDS011;45839;44.882;20.650;2023-01-15T14:26:52;26.48;;;19.92;;
59978;SDS011;45839;44.882;20.650;2023-01-15T14:34:32;18.75;;;14.73;;
59978;SDS011;45839;44.882;20.650;2023-01-15T14:39:47;39.22;;;34.05;;
59978;SDS011;45839;44.882;20.650;2023-01-15T14:42:36;42.72;;;34.75;;
59978;SDS011;45839;44.882;20.650;2023-01-15T14:47:54;28.58;;;20.98;;
59978;SDS011;45839;44.882;20.650;2023-01-15T14:52:50;19.30;;;15.32;;
59978;SDS011;45839;44.882;20.650;2023-01-15T14:55:18;20.98;;;17.08;;
59978;SDS011;45839;44.882;20.650;2023-01-15T14:57:46;17.27;;;13.27;;
59978;SDS011;45839;44.882;20.650;2023-01-15T15:00:15;17.40;;;13.07;;
59978;SDS011;45839;44.882;20.650;2023-01-15T15:02:43;17.13;;;11.85;;
59978;SDS011;45839;44.882;20.650;2023-01-15T15:05:14;15.75;;;12.10;;
59978;SDS011;45839;44.882;20.650;2023-01-15T15:07:44;15.48;;;12.20;;
59978;SDS011;45839;44.882;20.650;2023-01-15T15:18:12;16.50;;;12.25;;
59978;SDS011;45839;44.882;20.650;2023-01-15T15:23:16;17.40;;;13.50;;
59978;SDS011;45839;44.882;20.650;2023-01-15T15:25:53;18.13;;;13.83;;
59978;SDS011;45839;44.882;20.650;2023-01-15T15:28:19;22.52;;;15.15;;
59978;SDS011;45839;44.882;20.650;2023-01-15T15:30:45;23.00;;;17.75;;
59978;SDS011;45839;44.882;20.650;2023-01-15T15:33:15;17.95;;;13.65;;
59978;SDS011;45839;44.882;20.650;2023-01-15T15:35:42;19.92;;;15.45;;
59978;SDS011;45839;44.882;20.650;2023-01-15T15:38:13;20.63;;;14.57;;
59978;SDS011;45839;44.882;20.650;2023-01-15T15:40:43;17.58;;;14.43;;
59978;SDS011;45839;44.882;20.650;2023-01-15T15:43:18;17.70;;;13.70;;
59978;SDS011;45839;44.882;20.650;2023-01-15T15:46:03;16.17;;;12.02;;
59978;SDS011;45839;44.882;20.650;2023-01-15T15:48:50;17.27;;;12.98;;
59978;SDS011;45839;44.882;20.650;2023-01-15T15:53:48;17.65;;;13.00;;
59978;SDS011;45839;44.882;20.650;2023-01-15T15:56:14;17.10;;;12.55;;
59978;SDS011;45839;44.882;20.650;2023-01-15T15:58:40;16.63;;;12.73;;
59978;SDS011;45839;44.882;20.650;2023-01-15T16:01:10;16.75;;;12.63;;
59978;SDS011;45839;44.882;20.650;2023-01-15T16:03:44;17.05;;;13.02;;
59978;SDS011;45839;44.882;20.650;2023-01-15T16:06:18;17.80;;;13.93;;
59978;SDS011;45839;44.882;20.650;2023-01-15T16:08:50;18.58;;;13.18;;
59978;SDS011;45839;44.882;20.650;2023-01-15T16:11:17;18.42;;;13.45;;
59978;SDS011;45839;44.882;20.650;2023-01-15T16:13:44;16.60;;;12.90;;
59978;SDS011;45839;44.882;20.650;2023-01-15T16:16:12;18.52;;;13.32;;
59978;SDS011;45839;44.882;20.650;2023-01-15T16:18:44;18.10;;;13.05;;
59978;SDS011;45839;44.882;20.650;2023-01-15T16:24:03;17.58;;;13.02;;
59978;SDS011;45839;44.882;20.650;2023-01-15T16:26:31;18.38;;;12.93;;
59978;SDS011;45839;44.882;20.650;2023-01-15T16:28:59;220.07;;;169.48;;
59978;SDS011;45839;44.882;20.650;2023-01-15T16:31:26;131.73;;;98.88;;
59978;SDS011;45839;44.882;20.650;2023-01-15T16:33:57;74.88;;;58.85;;
59978;SDS011;45839;44.882;20.650;2023-01-15T16:36:24;51.42;;;41.30;;
59978;SDS011;45839;44.882;20.650;2023-01-15T16:38:51;34.33;;;26.13;;
59978;SDS011;45839;44.882;20.650;2023-01-15T16:41:25;40.15;;;30.33;;
59978;SDS011;45839;44.882;20.650;2023-01-15T16:43:59;21.73;;;16.95;;
59978;SDS011;45839;44.882;20.650;2023-01-15T16:46:30;19.08;;;13.50;;